createdAt,value
2023-05-10T00:00:10.391Z,62.97
2023-05-10T00:01:09.666Z,62.75
2023-05-10T00:01:42.825Z,62.80
2023-05-10T00:02:16.175Z,62.95
2023-05-10T00:02:49.693Z,62.95
2023-05-10T00:03:23.371Z,63.05
2023-05-10T00:03:56.923Z,62.97
2023-05-10T00:04:30.179Z,62.96
2023-05-10T00:05:03.561Z,62.98
2023-05-10T00:05:37.050Z,62.97
2023-05-10T00:06:10.378Z,62.92
2023-05-10T00:06:43.597Z,62.79
2023-05-10T00:07:18.624Z,62.88
2023-05-10T00:07:52.007Z,62.89
2023-05-10T00:08:25.214Z,62.95
2023-05-10T00:08:58.757Z,62.92
2023-05-10T00:09:32.013Z,63.01
2023-05-10T00:10:07.518Z,63.11
2023-05-10T00:10:44.126Z,63.08
2023-05-10T00:11:22.202Z,63.13
2023-05-10T00:11:56.257Z,63.29
2023-05-10T00:12:29.538Z,63.28
2023-05-10T00:13:02.797Z,63.39
2023-05-10T00:13:36.256Z,63.40
2023-05-10T00:14:09.501Z,63.50
2023-05-10T00:14:42.731Z,63.55
2023-05-10T00:15:16.057Z,63.55
2023-05-10T00:15:49.285Z,63.60
2023-05-10T00:16:22.706Z,63.61
2023-05-10T00:16:56.092Z,63.64
2023-05-10T00:17:29.540Z,63.73
2023-05-10T00:18:02.898Z,63.65
2023-05-10T00:18:36.354Z,63.71
2023-05-10T00:19:09.931Z,63.76
2023-05-10T00:19:43.251Z,63.69
2023-05-10T00:20:17.071Z,63.74
2023-05-10T00:20:50.713Z,63.79
2023-05-10T00:21:23.972Z,63.89
2023-05-10T00:21:57.483Z,63.72
2023-05-10T00:22:30.897Z,63.83
2023-05-10T00:23:04.265Z,63.73
2023-05-10T00:23:37.555Z,63.80
2023-05-10T00:24:10.801Z,63.83
2023-05-10T00:24:44.098Z,63.73
2023-05-10T00:25:17.440Z,63.77
2023-05-10T00:25:50.811Z,63.79
2023-05-10T00:26:24.157Z,63.74
2023-05-10T00:26:58.240Z,63.75
2023-05-10T00:27:32.071Z,63.69
2023-05-10T00:28:05.536Z,63.65
2023-05-10T00:28:38.778Z,63.67
2023-05-10T00:29:12.051Z,63.72
2023-05-10T00:29:45.378Z,63.69
2023-05-10T00:30:19.441Z,63.77
2023-05-10T00:30:52.842Z,63.77
2023-05-10T00:31:26.050Z,63.84
2023-05-10T00:31:59.544Z,63.92
2023-05-10T00:32:33.065Z,64.02
2023-05-10T00:33:06.457Z,64.02
2023-05-10T00:33:39.785Z,64.09
2023-05-10T00:34:13.106Z,64.15
2023-05-10T00:34:46.436Z,64.25
2023-05-10T00:35:19.755Z,64.12
2023-05-10T00:35:53.718Z,64.06
2023-05-10T00:36:27.278Z,63.99
2023-05-10T00:37:00.603Z,64.03
2023-05-10T00:37:34.056Z,63.84
2023-05-10T00:38:07.600Z,63.76
2023-05-10T00:38:41.578Z,63.77
2023-05-10T00:39:15.844Z,63.64
2023-05-10T00:39:49.168Z,63.59
2023-05-10T00:40:22.755Z,63.59
2023-05-10T00:40:59.314Z,63.59
2023-05-10T00:41:35.606Z,63.61
2023-05-10T00:42:08.867Z,63.60
2023-05-10T00:42:42.344Z,63.68
2023-05-10T00:43:15.597Z,63.62
2023-05-10T00:43:49.520Z,63.59
2023-05-10T00:44:22.696Z,63.46
2023-05-10T00:44:57.532Z,63.28
2023-05-10T00:45:33.992Z,63.08
2023-05-10T00:46:07.763Z,63.07
2023-05-10T00:46:41.737Z,63.31
2023-05-10T00:47:15.410Z,63.13
2023-05-10T00:47:48.740Z,63.13
2023-05-10T00:48:23.301Z,63.12
2023-05-10T00:48:56.870Z,63.17
2023-05-10T00:49:30.948Z,63.21
2023-05-10T00:50:06.460Z,63.19
2023-05-10T00:50:41.207Z,63.31
2023-05-10T00:51:15.010Z,63.37
2023-05-10T00:51:48.408Z,63.35
2023-05-10T00:52:21.681Z,63.34
2023-05-10T00:52:55.031Z,63.40
2023-05-10T00:53:28.685Z,63.53
2023-05-10T00:54:02.047Z,63.53
2023-05-10T00:54:35.634Z,63.61
2023-05-10T00:55:10.778Z,63.78
2023-05-10T00:55:44.369Z,63.89
2023-05-10T00:56:17.846Z,63.98
2023-05-10T00:56:51.241Z,63.96
2023-05-10T00:57:25.246Z,63.95
2023-05-10T00:57:58.555Z,63.89
2023-05-10T00:58:32.315Z,63.78
2023-05-10T00:59:05.697Z,63.62
2023-05-10T00:59:39.192Z,63.58
2023-05-10T01:00:19.355Z,63.57
2023-05-10T01:00:58.855Z,63.50
2023-05-10T01:01:33.421Z,63.53
2023-05-10T01:02:07.816Z,63.60
2023-05-10T01:02:42.604Z,63.57
2023-05-10T01:03:16.125Z,63.65
2023-05-10T01:03:49.980Z,63.75
2023-05-10T01:04:26.744Z,63.83
2023-05-10T01:05:01.268Z,63.87
2023-05-10T01:05:35.670Z,63.87
2023-05-10T01:06:11.221Z,63.99
2023-05-10T01:06:44.860Z,64.12
2023-05-10T01:07:18.154Z,64.09
2023-05-10T01:07:52.073Z,64.26
2023-05-10T01:08:26.916Z,64.21
2023-05-10T01:09:00.242Z,64.33
2023-05-10T01:09:35.047Z,64.26
2023-05-10T01:10:09.700Z,64.29
2023-05-10T01:10:44.360Z,64.26
2023-05-10T01:11:17.750Z,64.20
2023-05-10T01:11:51.504Z,64.17
2023-05-10T01:12:25.105Z,64.19
2023-05-10T01:13:00.749Z,64.17
2023-05-10T01:13:43.603Z,64.17
2023-05-10T01:14:20.994Z,64.11
2023-05-10T01:14:54.861Z,64.13
2023-05-10T01:15:28.660Z,64.16
2023-05-10T01:16:04.768Z,64.22
2023-05-10T01:16:40.348Z,64.24
2023-05-10T01:17:14.441Z,64.18
2023-05-10T01:17:49.401Z,64.32
2023-05-10T01:18:23.239Z,64.32
2023-05-10T01:18:56.888Z,64.32
2023-05-10T01:19:32.447Z,64.42
2023-05-10T01:20:09.111Z,64.38
2023-05-10T01:20:49.863Z,64.36
2023-05-10T01:21:49.440Z,64.41
2023-05-10T01:22:26.141Z,64.56
2023-05-10T01:23:11.112Z,64.60
2023-05-10T01:24:02.812Z,64.46
2023-05-10T01:24:57.455Z,64.45
2023-05-10T01:26:09.128Z,64.45
2023-05-10T01:27:00.431Z,64.49
2023-05-10T01:27:57.848Z,64.60
2023-05-10T01:29:12.519Z,64.97
2023-05-10T01:31:01.012Z,65.37
2023-05-10T01:31:52.388Z,65.13
2023-05-10T01:32:34.698Z,65.00
2023-05-10T01:33:17.053Z,65.01
2023-05-10T01:34:00.767Z,64.92
2023-05-10T01:34:47.555Z,64.99
2023-05-10T01:35:59.383Z,64.93
2023-05-10T01:36:41.474Z,64.92
2023-05-10T01:37:21.418Z,64.97
2023-05-10T01:38:12.421Z,64.86
2023-05-10T01:38:53.155Z,64.87
2023-05-10T01:39:37.985Z,64.98
2023-05-10T01:40:36.511Z,64.99
2023-05-10T01:41:21.343Z,65.09
2023-05-10T01:42:09.403Z,65.10
2023-05-10T01:42:51.181Z,65.13
2023-05-10T01:43:32.371Z,65.23
2023-05-10T01:44:23.246Z,65.21
2023-05-10T01:45:11.290Z,65.29
2023-05-10T01:46:11.754Z,65.19
2023-05-10T01:46:50.093Z,65.11
2023-05-10T01:47:36.838Z,65.12
2023-05-10T01:48:12.125Z,65.07
2023-05-10T01:48:49.653Z,65.04
2023-05-10T01:50:44.791Z,64.76
2023-05-10T01:51:23.068Z,64.58
2023-05-10T01:52:03.314Z,64.53
2023-05-10T01:52:43.789Z,64.44
2023-05-10T01:53:20.391Z,64.57
2023-05-10T01:54:01.674Z,64.60
2023-05-10T01:54:36.801Z,64.58
2023-05-10T01:55:17.184Z,64.80
2023-05-10T01:55:54.952Z,64.84
2023-05-10T01:56:31.382Z,64.92
2023-05-10T01:57:07.545Z,65.08
2023-05-10T01:57:43.643Z,65.10
2023-05-10T01:58:24.920Z,65.35
2023-05-10T01:58:59.894Z,65.37
2023-05-10T01:59:37.686Z,65.43
2023-05-10T02:00:12.618Z,65.46
2023-05-10T02:00:50.832Z,65.52
2023-05-10T02:01:28.033Z,65.59
2023-05-10T02:02:03.265Z,65.67
2023-05-10T02:02:43.306Z,65.73
2023-05-10T02:03:19.336Z,65.65
2023-05-10T02:03:54.862Z,65.79
2023-05-10T02:04:29.151Z,65.78
2023-05-10T02:05:06.114Z,65.92
2023-05-10T02:05:41.333Z,66.06
2023-05-10T02:06:17.612Z,66.10
2023-05-10T02:06:52.614Z,66.21
2023-05-10T02:07:29.662Z,66.20
2023-05-10T02:08:07.033Z,66.31
2023-05-10T02:08:42.348Z,66.37
2023-05-10T02:09:17.014Z,66.36
2023-05-10T02:09:51.841Z,66.38
2023-05-10T02:10:25.089Z,66.52
2023-05-10T02:10:59.882Z,66.54
2023-05-10T02:11:34.978Z,66.61
2023-05-10T02:12:09.500Z,66.57
2023-05-10T02:12:45.695Z,66.56
2023-05-10T02:13:20.827Z,66.61
2023-05-10T02:13:56.448Z,66.63
2023-05-10T02:14:35.857Z,66.55
2023-05-10T02:15:11.625Z,66.56
2023-05-10T02:15:48.631Z,66.59
2023-05-10T02:16:26.493Z,66.64
2023-05-10T02:17:02.602Z,66.66
2023-05-10T02:17:38.272Z,66.74
2023-05-10T02:18:13.368Z,66.64
2023-05-10T02:18:49.480Z,66.68
2023-05-10T02:19:23.413Z,66.67
2023-05-10T02:19:58.875Z,66.69
2023-05-10T02:20:33.268Z,66.62
2023-05-10T02:21:07.699Z,66.73
2023-05-10T02:21:42.726Z,66.63
2023-05-10T02:22:17.443Z,66.67
2023-05-10T02:22:52.852Z,66.70
2023-05-10T02:23:27.491Z,66.64
2023-05-10T02:24:04.555Z,66.55
2023-05-10T02:24:39.624Z,66.38
2023-05-10T02:25:15.088Z,66.24
2023-05-10T02:25:49.768Z,66.09
2023-05-10T02:26:26.375Z,66.11
2023-05-10T02:27:01.411Z,66.06
2023-05-10T02:27:35.989Z,65.98
2023-05-10T02:28:13.467Z,65.94
2023-05-10T02:28:47.461Z,65.95
2023-05-10T02:29:21.561Z,65.94
2023-05-10T02:29:56.249Z,65.90
2023-05-10T02:30:31.600Z,65.76
2023-05-10T02:31:06.394Z,65.59
2023-05-10T02:31:40.268Z,65.43
2023-05-10T02:32:15.033Z,65.34
2023-05-10T02:32:50.415Z,65.27
2023-05-10T02:33:25.097Z,65.25
2023-05-10T02:34:01.463Z,65.16
2023-05-10T02:34:35.509Z,65.05
2023-05-10T02:35:11.013Z,65.08
2023-05-10T02:35:45.002Z,65.12
2023-05-10T02:36:20.667Z,65.07
2023-05-10T02:36:55.010Z,65.23
2023-05-10T02:37:28.719Z,65.31
2023-05-10T02:38:02.418Z,65.44
2023-05-10T02:38:37.900Z,65.65
2023-05-10T02:39:14.699Z,65.75
2023-05-10T02:39:53.350Z,65.79
2023-05-10T02:40:28.863Z,65.93
2023-05-10T02:41:05.958Z,66.08
2023-05-10T02:41:41.787Z,66.12
2023-05-10T02:42:19.063Z,66.12
2023-05-10T02:42:55.789Z,66.18
2023-05-10T02:43:31.506Z,66.22
2023-05-10T02:44:09.068Z,66.24
2023-05-10T02:44:43.635Z,66.17
2023-05-10T02:45:22.248Z,66.11
2023-05-10T02:45:55.609Z,66.11
2023-05-10T02:46:28.888Z,66.23
2023-05-10T02:47:02.865Z,66.25
2023-05-10T02:47:36.701Z,66.31
2023-05-10T02:48:10.131Z,66.33
2023-05-10T02:48:43.468Z,66.46
2023-05-10T02:49:17.669Z,66.52
2023-05-10T02:49:50.966Z,66.51
2023-05-10T02:50:28.503Z,66.50
2023-05-10T02:51:06.474Z,66.46
2023-05-10T02:51:46.225Z,65.93
2023-05-10T02:52:24.833Z,65.75
2023-05-10T02:53:03.380Z,65.75
2023-05-10T02:53:39.801Z,65.84
2023-05-10T02:54:19.900Z,65.86
2023-05-10T02:54:57.075Z,65.79
2023-05-10T02:55:36.568Z,65.75
2023-05-10T02:56:16.600Z,65.76
2023-05-10T02:56:55.052Z,65.73
2023-05-10T02:57:33.252Z,65.71
2023-05-10T02:58:06.725Z,65.76
2023-05-10T02:58:40.072Z,65.79
2023-05-10T02:59:13.517Z,65.88
2023-05-10T02:59:47.283Z,66.01
2023-05-10T03:00:20.669Z,66.03
2023-05-10T03:00:54.205Z,66.21
2023-05-10T03:01:27.674Z,66.31
2023-05-10T03:02:02.043Z,66.34
2023-05-10T03:02:35.620Z,66.47
2023-05-10T03:03:09.657Z,66.47
2023-05-10T03:03:43.009Z,66.54
2023-05-10T03:04:16.324Z,66.67
2023-05-10T03:04:49.629Z,66.83
2023-05-10T03:05:23.173Z,66.85
2023-05-10T03:05:57.024Z,66.99
2023-05-10T03:06:31.179Z,67.12
2023-05-10T03:07:04.881Z,67.05
2023-05-10T03:07:38.627Z,66.89
2023-05-10T03:08:12.219Z,66.94
2023-05-10T03:08:46.910Z,66.92
2023-05-10T03:09:21.027Z,66.87
2023-05-10T03:09:54.409Z,66.78
2023-05-10T03:10:30.522Z,66.63
2023-05-10T03:11:43.617Z,66.61
2023-05-10T03:12:29.671Z,66.56
2023-05-10T03:13:23.114Z,66.54
2023-05-10T03:14:10.300Z,66.58
2023-05-10T03:15:13.153Z,66.54
2023-05-10T03:16:09.215Z,66.64
2023-05-10T03:16:48.364Z,66.62
2023-05-10T03:17:36.808Z,66.75
2023-05-10T03:18:22.377Z,66.80
2023-05-10T03:19:17.791Z,66.86
2023-05-10T03:19:59.231Z,67.01
2023-05-10T03:20:44.737Z,67.10
2023-05-10T03:21:20.034Z,67.45
2023-05-10T03:21:55.157Z,67.50
2023-05-10T03:22:51.207Z,67.59
2023-05-10T03:23:36.547Z,67.61
2023-05-10T03:24:13.579Z,67.69
2023-05-10T03:24:48.798Z,67.79
2023-05-10T03:25:24.156Z,67.98
2023-05-10T03:25:58.187Z,68.09
2023-05-10T03:26:31.654Z,68.15
2023-05-10T03:27:15.494Z,68.18
2023-05-10T03:27:49.327Z,68.19
2023-05-10T03:28:26.152Z,68.10
2023-05-10T03:29:00.686Z,68.05
2023-05-10T03:29:34.816Z,67.97
2023-05-10T03:30:11.647Z,67.82
2023-05-10T03:30:46.123Z,67.81
2023-05-10T03:31:20.020Z,67.63
2023-05-10T03:31:53.487Z,67.63
2023-05-10T03:32:28.408Z,67.59
2023-05-10T03:33:07.507Z,67.55
2023-05-10T03:33:49.561Z,67.63
2023-05-10T03:34:27.088Z,67.66
2023-05-10T03:35:00.255Z,67.76
2023-05-10T03:35:33.875Z,67.80
2023-05-10T03:36:07.794Z,67.83
2023-05-10T03:36:41.098Z,67.82
2023-05-10T03:37:14.490Z,67.89
2023-05-10T03:37:48.625Z,67.84
2023-05-10T03:38:22.074Z,67.76
2023-05-10T03:38:55.768Z,67.80
2023-05-10T03:39:29.140Z,67.87
2023-05-10T03:40:05.722Z,67.92
2023-05-10T03:40:40.582Z,67.98
2023-05-10T03:41:14.382Z,68.00
2023-05-10T03:41:47.798Z,68.02
2023-05-10T03:42:20.989Z,68.03
2023-05-10T03:42:54.069Z,67.91
2023-05-10T03:43:27.202Z,67.87
2023-05-10T03:44:00.342Z,67.67
2023-05-10T03:44:34.485Z,67.58
2023-05-10T03:45:08.765Z,67.48
2023-05-10T03:45:42.014Z,67.38
2023-05-10T03:46:15.256Z,67.31
2023-05-10T03:46:48.626Z,67.29
2023-05-10T03:47:22.217Z,67.28
2023-05-10T03:47:55.625Z,67.34
2023-05-10T03:48:28.900Z,67.43
2023-05-10T03:49:02.099Z,67.52
2023-05-10T03:49:35.445Z,67.69
2023-05-10T03:50:09.289Z,67.79
2023-05-10T03:50:42.556Z,67.92
2023-05-10T03:51:15.778Z,68.02
2023-05-10T03:51:49.126Z,68.05
2023-05-10T03:52:22.491Z,68.20
2023-05-10T03:52:56.265Z,68.35
2023-05-10T03:53:29.533Z,68.40
2023-05-10T03:54:02.617Z,68.52
2023-05-10T03:54:36.094Z,68.48
2023-05-10T03:55:09.524Z,68.39
2023-05-10T03:55:42.693Z,68.41
2023-05-10T03:56:15.831Z,68.42
2023-05-10T03:56:51.625Z,68.39
2023-05-10T03:57:25.049Z,68.22
2023-05-10T03:57:58.599Z,68.24
2023-05-10T03:58:32.005Z,68.10
2023-05-10T03:59:10.108Z,68.15
2023-05-10T03:59:43.469Z,68.16
2023-05-10T04:00:17.437Z,68.08
2023-05-10T04:00:50.772Z,68.12
2023-05-10T04:01:24.097Z,68.10
2023-05-10T04:01:57.376Z,68.17
2023-05-10T04:02:31.616Z,68.26
2023-05-10T04:03:05.215Z,68.16
2023-05-10T04:03:39.563Z,68.27
2023-05-10T04:04:13.158Z,68.31
2023-05-10T04:04:46.508Z,68.33
2023-05-10T04:05:19.720Z,68.38
2023-05-10T04:06:03.115Z,68.42
2023-05-10T04:06:36.773Z,68.53
2023-05-10T04:07:11.566Z,68.61
2023-05-10T04:07:45.616Z,68.65
2023-05-10T04:08:19.090Z,68.68
2023-05-10T04:08:52.389Z,68.86
2023-05-10T04:09:25.633Z,68.90
2023-05-10T04:09:59.058Z,68.93
2023-05-10T04:10:32.635Z,68.98
2023-05-10T04:11:10.071Z,69.06
2023-05-10T04:11:43.433Z,69.34
2023-05-10T04:12:16.745Z,69.15
2023-05-10T04:12:50.087Z,69.16
2023-05-10T04:13:23.914Z,69.19
2023-05-10T04:13:57.164Z,69.36
2023-05-10T04:14:30.400Z,69.37
2023-05-10T04:15:03.986Z,69.39
2023-05-10T04:15:37.207Z,69.40
2023-05-10T04:16:10.631Z,69.36
2023-05-10T04:16:43.947Z,69.42
2023-05-10T04:17:17.225Z,69.31
2023-05-10T04:17:51.593Z,69.33
2023-05-10T04:18:24.971Z,69.39
2023-05-10T04:18:58.589Z,69.32
2023-05-10T04:19:32.518Z,69.28
2023-05-10T04:20:06.456Z,69.22
2023-05-10T04:20:39.757Z,69.26
2023-05-10T04:21:14.645Z,69.12
2023-05-10T04:21:47.941Z,69.10
2023-05-10T04:22:21.997Z,69.11
2023-05-10T04:22:55.173Z,69.08
2023-05-10T04:23:29.048Z,68.98
2023-05-10T04:24:02.357Z,69.05
2023-05-10T04:24:35.524Z,68.93
2023-05-10T04:25:09.449Z,68.94
2023-05-10T04:25:42.662Z,69.00
2023-05-10T04:26:16.125Z,69.02
2023-05-10T04:26:49.376Z,68.98
2023-05-10T04:27:22.579Z,68.98
2023-05-10T04:27:55.733Z,69.01
2023-05-10T04:28:29.075Z,69.03
2023-05-10T04:29:02.324Z,69.01
2023-05-10T04:29:35.649Z,69.01
2023-05-10T04:30:09.322Z,69.02
2023-05-10T04:30:42.602Z,68.99
2023-05-10T04:31:15.898Z,68.97
2023-05-10T04:31:50.056Z,69.10
2023-05-10T04:32:23.571Z,69.17
2023-05-10T04:32:56.826Z,69.13
2023-05-10T04:33:30.063Z,69.12
2023-05-10T04:34:03.661Z,69.17
2023-05-10T04:34:37.801Z,69.24
2023-05-10T04:35:11.862Z,68.86
2023-05-10T04:35:46.411Z,68.49
2023-05-10T04:36:19.904Z,68.14
2023-05-10T04:36:53.150Z,68.01
2023-05-10T04:37:26.355Z,67.85
2023-05-10T04:37:59.640Z,67.53
2023-05-10T04:38:33.019Z,67.32
2023-05-10T04:39:06.380Z,66.65
2023-05-10T04:39:41.992Z,66.37
2023-05-10T04:40:15.912Z,66.38
2023-05-10T04:40:49.426Z,65.77
2023-05-10T04:41:22.858Z,65.79
2023-05-10T04:41:56.085Z,65.25
2023-05-10T04:42:29.417Z,64.89
2023-05-10T04:43:02.676Z,64.73
2023-05-10T04:43:36.601Z,64.75
2023-05-10T04:44:10.055Z,64.97
2023-05-10T04:44:43.702Z,64.95
2023-05-10T04:45:16.973Z,64.73
2023-05-10T04:45:53.924Z,64.78
2023-05-10T04:46:27.207Z,64.67
2023-05-10T04:47:01.377Z,64.46
2023-05-10T04:47:34.884Z,64.11
2023-05-10T04:48:08.641Z,63.94
2023-05-10T04:48:41.864Z,63.96
2023-05-10T04:49:15.678Z,63.86
2023-05-10T04:49:48.921Z,63.75
2023-05-10T04:50:22.170Z,63.36
2023-05-10T04:50:55.686Z,63.22
2023-05-10T04:51:29.068Z,63.01
2023-05-10T04:52:02.327Z,62.70
2023-05-10T04:52:35.778Z,62.35
2023-05-10T04:53:09.044Z,62.22
2023-05-10T04:53:46.409Z,62.02
2023-05-10T04:54:21.829Z,62.28
2023-05-10T04:54:55.138Z,62.57
2023-05-10T04:55:28.398Z,62.49
2023-05-10T04:56:01.776Z,62.15
2023-05-10T04:56:35.202Z,62.17
2023-05-10T04:57:08.499Z,62.27
2023-05-10T04:57:41.681Z,61.78
2023-05-10T04:58:15.062Z,61.80
2023-05-10T04:58:48.288Z,62.05
2023-05-10T04:59:21.524Z,62.18
2023-05-10T04:59:55.550Z,61.54
2023-05-10T05:00:28.805Z,60.94
2023-05-10T05:01:09.406Z,61.05
2023-05-10T05:01:42.810Z,61.20
2023-05-10T05:02:15.973Z,61.30
2023-05-10T05:02:49.393Z,61.39
2023-05-10T05:03:23.378Z,61.35
2023-05-10T05:03:57.425Z,61.31
2023-05-10T05:04:32.158Z,61.00
2023-05-10T05:05:05.870Z,60.88
2023-05-10T05:05:39.284Z,60.54
2023-05-10T05:06:12.513Z,60.37
2023-05-10T05:06:45.831Z,60.33
2023-05-10T05:07:19.164Z,60.19
2023-05-10T05:07:52.439Z,60.27
2023-05-10T05:08:25.714Z,60.37
2023-05-10T05:08:59.171Z,59.87
2023-05-10T05:09:33.285Z,59.76
2023-05-10T05:10:08.388Z,60.03
2023-05-10T05:10:41.915Z,60.36
2023-05-10T05:11:16.464Z,60.19
2023-05-10T05:11:50.034Z,60.57
2023-05-10T05:12:23.361Z,60.71
2023-05-10T05:12:56.728Z,60.84
2023-05-10T05:13:30.486Z,60.90
2023-05-10T05:14:03.912Z,61.33
2023-05-10T05:14:37.413Z,61.16
2023-05-10T05:15:11.903Z,60.38
2023-05-10T05:15:45.231Z,60.12
2023-05-10T05:16:18.746Z,60.08
2023-05-10T05:16:54.584Z,60.44
2023-05-10T05:17:27.928Z,60.61
2023-05-10T05:18:01.368Z,60.62
2023-05-10T05:18:34.714Z,60.32
2023-05-10T05:19:08.143Z,59.87
2023-05-10T05:19:41.422Z,59.60
2023-05-10T05:20:15.724Z,59.81
2023-05-10T05:20:49.128Z,60.04
2023-05-10T05:21:22.820Z,59.69
2023-05-10T05:21:56.029Z,60.03
2023-05-10T05:22:29.522Z,59.94
2023-05-10T05:23:03.027Z,59.70
2023-05-10T05:23:36.469Z,59.77
2023-05-10T05:24:09.757Z,59.68
2023-05-10T05:24:42.991Z,59.69
2023-05-10T05:25:17.055Z,59.68
2023-05-10T05:25:50.265Z,59.82
2023-05-10T05:26:23.535Z,59.96
2023-05-10T05:26:56.757Z,59.90
2023-05-10T05:27:30.480Z,59.79
2023-05-10T05:28:03.750Z,60.21
2023-05-10T05:28:38.507Z,60.25
2023-05-10T05:29:11.833Z,60.22
2023-05-10T05:29:44.942Z,60.22
2023-05-10T05:30:18.283Z,60.11
2023-05-10T05:30:51.661Z,60.39
2023-05-10T05:31:24.804Z,60.27
2023-05-10T05:31:58.149Z,59.80
2023-05-10T05:32:31.673Z,59.46
2023-05-10T05:33:05.392Z,59.27
2023-05-10T05:33:38.818Z,59.57
2023-05-10T05:34:12.140Z,59.69
2023-05-10T05:34:46.602Z,59.35
2023-05-10T05:35:19.905Z,59.29
2023-05-10T05:35:53.375Z,59.11
2023-05-10T05:36:26.764Z,59.09
2023-05-10T05:37:00.013Z,58.90
2023-05-10T05:37:33.528Z,59.01
2023-05-10T05:38:07.390Z,59.44
2023-05-10T05:38:40.587Z,59.74
2023-05-10T05:39:13.870Z,59.83
2023-05-10T05:39:47.178Z,59.65
2023-05-10T05:40:21.540Z,59.61
2023-05-10T05:40:54.749Z,58.97
2023-05-10T05:41:27.990Z,58.77
2023-05-10T05:42:01.177Z,59.38
2023-05-10T05:42:34.497Z,59.86
2023-05-10T05:43:07.802Z,59.37
2023-05-10T05:43:41.103Z,59.34
2023-05-10T05:44:14.350Z,59.15
2023-05-10T05:44:47.702Z,59.41
2023-05-10T05:45:21.250Z,58.80
2023-05-10T05:45:55.182Z,58.22
2023-05-10T05:46:28.446Z,57.78
2023-05-10T05:47:01.910Z,57.99
2023-05-10T05:47:35.473Z,58.20
2023-05-10T05:48:08.891Z,58.61
2023-05-10T05:48:42.223Z,58.51
2023-05-10T05:49:16.104Z,58.02
2023-05-10T05:49:49.402Z,58.09
2023-05-10T05:50:22.603Z,58.04
2023-05-10T05:50:57.686Z,58.18
2023-05-10T05:51:32.128Z,58.41
2023-05-10T05:52:05.902Z,58.08
2023-05-10T05:52:39.197Z,58.12
2023-05-10T05:53:12.598Z,58.03
2023-05-10T05:53:45.770Z,57.82
2023-05-10T05:54:19.029Z,57.44
2023-05-10T05:54:52.314Z,57.56
2023-05-10T05:55:27.039Z,57.71
2023-05-10T05:56:00.243Z,57.71
2023-05-10T05:56:33.423Z,57.82
2023-05-10T05:57:06.935Z,58.15
2023-05-10T05:57:40.351Z,58.19
2023-05-10T05:58:13.536Z,58.12
2023-05-10T05:58:46.909Z,58.16
2023-05-10T05:59:20.191Z,58.16
2023-05-10T05:59:53.522Z,58.06
2023-05-10T06:00:27.038Z,57.89
2023-05-10T06:01:00.376Z,57.88
2023-05-10T06:01:33.523Z,57.96
2023-05-10T06:02:06.892Z,58.17
2023-05-10T06:02:40.402Z,58.39
2023-05-10T06:03:13.937Z,58.71
2023-05-10T06:03:47.425Z,59.08
2023-05-10T06:04:20.850Z,58.90
2023-05-10T06:04:54.164Z,58.68
2023-05-10T06:05:27.509Z,58.58
2023-05-10T06:06:00.715Z,58.81
2023-05-10T06:06:34.195Z,58.82
2023-05-10T06:07:07.494Z,58.44
2023-05-10T06:07:43.361Z,58.49
2023-05-10T06:08:16.827Z,58.43
2023-05-10T06:08:50.253Z,58.58
2023-05-10T06:09:25.671Z,58.81
2023-05-10T06:09:59.071Z,58.70
2023-05-10T06:10:32.311Z,58.92
2023-05-10T06:11:05.716Z,58.87
2023-05-10T06:11:39.232Z,58.53
2023-05-10T06:12:13.114Z,58.52
2023-05-10T06:12:46.486Z,58.01
2023-05-10T06:13:19.925Z,57.79
2023-05-10T06:13:53.191Z,57.59
2023-05-10T06:14:26.624Z,57.27
2023-05-10T06:14:59.938Z,57.30
2023-05-10T06:15:33.994Z,57.62
2023-05-10T06:16:07.716Z,58.11
2023-05-10T06:16:41.719Z,58.63
2023-05-10T06:17:15.045Z,58.51
2023-05-10T06:17:50.332Z,58.52
2023-05-10T06:18:24.030Z,58.65
2023-05-10T06:18:57.722Z,58.73
2023-05-10T06:19:30.977Z,58.68
2023-05-10T06:20:04.678Z,58.95
2023-05-10T06:20:37.876Z,58.50
2023-05-10T06:21:11.105Z,58.01
2023-05-10T06:21:44.428Z,57.90
2023-05-10T06:22:17.735Z,57.70
2023-05-10T06:22:50.971Z,57.63
2023-05-10T06:23:24.553Z,57.81
2023-05-10T06:23:57.863Z,57.74
2023-05-10T06:24:31.221Z,57.82
2023-05-10T06:25:04.596Z,57.87
2023-05-10T06:25:38.062Z,57.67
2023-05-10T06:26:11.397Z,57.63
2023-05-10T06:26:44.827Z,57.88
2023-05-10T06:27:18.545Z,57.85
2023-05-10T06:27:53.619Z,57.71
2023-05-10T06:28:27.376Z,57.74
2023-05-10T06:29:00.781Z,57.99
2023-05-10T06:29:34.429Z,57.93
2023-05-10T06:30:12.983Z,58.14
2023-05-10T06:30:46.797Z,58.15
2023-05-10T06:31:20.117Z,58.48
2023-05-10T06:31:54.032Z,58.37
2023-05-10T06:32:27.358Z,58.29
2023-05-10T06:33:00.674Z,58.24
2023-05-10T06:33:34.995Z,58.45
2023-05-10T06:34:09.148Z,58.71
2023-05-10T06:34:47.344Z,58.81
2023-05-10T06:35:20.705Z,58.91
2023-05-10T06:35:54.108Z,58.73
2023-05-10T06:36:28.400Z,58.88
2023-05-10T06:37:01.705Z,59.39
2023-05-10T06:37:35.584Z,59.19
2023-05-10T06:38:08.845Z,59.13
2023-05-10T06:38:42.315Z,59.50
2023-05-10T06:39:15.627Z,59.61
2023-05-10T06:39:48.948Z,59.51
2023-05-10T06:40:22.462Z,59.24
2023-05-10T06:40:55.802Z,59.34
2023-05-10T06:41:28.977Z,59.29
2023-05-10T06:42:05.908Z,59.12
2023-05-10T06:42:39.216Z,59.04
2023-05-10T06:43:12.412Z,59.08
2023-05-10T06:43:45.662Z,59.18
2023-05-10T06:44:18.810Z,58.91
2023-05-10T06:44:52.177Z,59.00
2023-05-10T06:45:25.615Z,58.99
2023-05-10T06:45:58.941Z,59.02
2023-05-10T06:46:32.243Z,59.19
2023-05-10T06:47:05.611Z,59.08
2023-05-10T06:47:39.441Z,59.27
2023-05-10T06:48:12.879Z,59.15
2023-05-10T06:48:46.078Z,58.87
2023-05-10T06:49:19.249Z,59.04
2023-05-10T06:49:52.406Z,59.38
2023-05-10T06:50:25.938Z,59.22
2023-05-10T06:50:59.257Z,59.31
2023-05-10T06:51:32.463Z,59.59
2023-05-10T06:52:05.746Z,59.90
2023-05-10T06:52:39.130Z,60.01
2023-05-10T06:53:13.169Z,60.05
2023-05-10T06:53:46.446Z,60.16
2023-05-10T06:54:20.412Z,59.77
2023-05-10T06:54:53.586Z,59.87
2023-05-10T06:55:27.573Z,59.63
2023-05-10T06:56:00.855Z,59.55
2023-05-10T06:56:34.335Z,59.72
2023-05-10T06:57:23.461Z,59.43
2023-05-10T06:58:03.575Z,59.33
2023-05-10T06:58:36.782Z,59.02
2023-05-10T06:59:10.051Z,58.91
2023-05-10T06:59:43.311Z,59.00
2023-05-10T07:00:17.340Z,59.05
2023-05-10T07:00:50.921Z,59.31
2023-05-10T07:01:24.422Z,59.41
2023-05-10T07:01:57.731Z,59.21
2023-05-10T07:02:31.103Z,59.36
2023-05-10T07:03:04.637Z,59.56
2023-05-10T07:03:38.172Z,59.63
2023-05-10T07:04:11.355Z,59.20
2023-05-10T07:04:45.013Z,59.61
2023-05-10T07:05:18.904Z,59.78
2023-05-10T07:05:52.371Z,59.40
2023-05-10T07:06:33.543Z,59.24
2023-05-10T07:07:07.276Z,59.32
2023-05-10T07:07:40.887Z,59.46
2023-05-10T07:08:14.585Z,59.79
2023-05-10T07:08:47.823Z,59.83
2023-05-10T07:09:21.396Z,59.89
2023-05-10T07:09:54.825Z,59.87
2023-05-10T07:10:28.071Z,59.94
2023-05-10T07:11:08.331Z,59.74
2023-05-10T07:11:41.558Z,59.57
2023-05-10T07:12:16.086Z,59.86
2023-05-10T07:12:49.412Z,59.75
2023-05-10T07:13:22.695Z,59.55
2023-05-10T07:13:57.851Z,59.76
2023-05-10T07:14:31.092Z,59.90
2023-05-10T07:15:04.944Z,59.87
2023-05-10T07:15:38.237Z,59.95
2023-05-10T07:16:11.616Z,59.96
2023-05-10T07:16:45.735Z,60.07
2023-05-10T07:17:19.039Z,60.02
2023-05-10T07:17:53.269Z,59.92
2023-05-10T07:18:26.946Z,59.88
2023-05-10T07:19:00.311Z,59.93
2023-05-10T07:19:33.921Z,59.99
2023-05-10T07:20:08.143Z,59.92
2023-05-10T07:20:43.591Z,60.09
2023-05-10T07:21:17.026Z,60.04
2023-05-10T07:21:50.436Z,60.09
2023-05-10T07:22:23.702Z,60.08
2023-05-10T07:22:56.943Z,60.32
2023-05-10T07:23:30.976Z,60.52
2023-05-10T07:24:04.805Z,60.61
2023-05-10T07:24:38.092Z,60.82
2023-05-10T07:25:11.914Z,60.59
2023-05-10T07:25:55.065Z,60.56
2023-05-10T07:26:28.423Z,60.48
2023-05-10T07:27:01.728Z,60.86
2023-05-10T07:27:35.646Z,60.83
2023-05-10T07:28:08.907Z,60.85
2023-05-10T07:28:42.576Z,60.77
2023-05-10T07:29:15.836Z,60.97
2023-05-10T07:29:49.290Z,61.19
2023-05-10T07:30:22.568Z,61.43
2023-05-10T07:30:55.883Z,61.71
2023-05-10T07:31:29.240Z,61.64
2023-05-10T07:32:02.599Z,61.72
2023-05-10T07:32:36.126Z,61.38
2023-05-10T07:33:11.320Z,61.49
2023-05-10T07:33:44.663Z,61.34
2023-05-10T07:34:18.037Z,61.16
2023-05-10T07:34:51.434Z,61.01
2023-05-10T07:35:24.836Z,60.91
2023-05-10T07:35:58.602Z,60.92